Wetterdaten: Woche 02.11.09 - 08.11.09 (KW45)
Datum Zeit Temperatur Luftfeuchte Luftdruck Niederschlag Wind Richtung Sonnenschein Solar Taupunkt Windchill Windben
02.11.2009 00:00 8.3 C 95 % 1007.0 hPa 1.4 l/m 0.0 km/h (0 Bft) S-SW 0.00 h 0 W/m 7.5 C 8.3 C 0.3 km/h (0 Bft)
02.11.2009 01:00 8.3 C 96 % 1006.5 hPa 1.4 l/m 0.2 km/h (0 Bft) O-SO 0.00 h 0 W/m 7.6 C 8.3 C 0.7 km/h (0 Bft)
02.11.2009 02:00 8.5 C 97 % 1006.6 hPa 1.8 l/m 0.2 km/h (0 Bft) O-SO 0.00 h 0 W/m 8.0 C 8.5 C 0.9 km/h (0 Bft)
02.11.2009 03:00 8.8 C 97 % 1006.3 hPa 1.4 l/m 0.1 km/h (0 Bft) O-SO 0.00 h 0 W/m 8.3 C 8.8 C 0.7 km/h (0 Bft)
02.11.2009 04:00 8.8 C 98 % 1006.3 hPa 2.4 l/m 0.3 km/h (0 Bft) O-SO 0.00 h 0 W/m 8.4 C 8.8 C 1.5 km/h (1 Bft)
02.11.2009 05:00 9.0 C 98 % 1006.3 hPa 0.6 l/m 0.2 km/h (0 Bft) SO 0.00 h 0 W/m 8.7 C 9.0 C 0.8 km/h (0 Bft)
02.11.2009 06:00 9.1 C 99 % 1005.7 hPa 0.4 l/m 0.2 km/h (0 Bft) NO 0.00 h 0 W/m 8.9 C 9.1 C 1.0 km/h (0 Bft)
02.11.2009 07:00 9.2 C 99 % 1005.1 hPa 0.4 l/m 0.2 km/h (0 Bft) NO 0.00 h 13 W/m 9.0 C 9.2 C 0.6 km/h (0 Bft)
02.11.2009 08:00 10.5 C 100 % 1004.6 hPa 0.6 l/m 3.8 km/h (1 Bft) S-SO 0.00 h 22 W/m 10.5 C 10.5 C 7.3 km/h (2 Bft)
02.11.2009 09:00 11.0 C 100 % 1004.4 hPa 1.0 l/m 5.5 km/h (1 Bft) S 0.00 h 27 W/m 11.0 C 11.0 C 10.9 km/h (2 Bft)
02.11.2009 10:00 10.7 C 99 % 1004.5 hPa 1.6 l/m 10.3 km/h (2 Bft) W 0.00 h 37 W/m 10.6 C 10.5 C 17.0 km/h (3 Bft)
02.11.2009 11:00 9.6 C 99 % 1004.5 hPa 1.6 l/m 8.8 km/h (2 Bft) W-NW 0.00 h 52 W/m 9.3 C 8.4 C 13.9 km/h (3 Bft)
02.11.2009 12:00 9.2 C 99 % 1004.2 hPa 0.0 l/m 2.5 km/h (1 Bft) W 0.00 h 80 W/m 9.0 C 9.1 C 5.0 km/h (1 Bft)
02.11.2009 13:00 9.3 C 98 % 1004.0 hPa 0.8 l/m 6.4 km/h (2 Bft) W 0.00 h 30 W/m 9.0 C 8.5 C 10.6 km/h (2 Bft)
02.11.2009 14:00 8.3 C 98 % 1004.2 hPa 1.8 l/m 13.3 km/h (3 Bft) W 0.00 h 27 W/m 7.9 C 6.5 C 20.7 km/h (4 Bft)
02.11.2009 15:00 7.1 C 97 % 1005.5 hPa 0.4 l/m 14.8 km/h (3 Bft) W 0.00 h 25 W/m 6.7 C 4.5 C 23.6 km/h (4 Bft)
02.11.2009 16:00 6.6 C 97 % 1006.4 hPa 0.8 l/m 12.6 km/h (3 Bft) W 0.00 h 11 W/m 6.1 C 4.1 C 20.4 km/h (4 Bft)
02.11.2009 17:00 6.0 C 96 % 1006.7 hPa 0.2 l/m 9.3 km/h (2 Bft) W 0.00 h 0 W/m 5.5 C 4.2 C 15.2 km/h (3 Bft)
02.11.2009 18:00 6.0 C 96 % 1007.2 hPa 0.0 l/m 3.2 km/h (1 Bft) W-SW 0.00 h 0 W/m 5.4 C 5.8 C 6.0 km/h (2 Bft)
02.11.2009 19:00 6.0 C 95 % 1007.0 hPa 0.2 l/m 3.6 km/h (1 Bft) S 0.00 h 0 W/m 5.3 C 5.6 C 7.0 km/h (2 Bft)
02.11.2009 20:00 5.7 C 95 % 1006.9 hPa 0.0 l/m 1.8 km/h (1 Bft) SW 0.00 h 0 W/m 4.9 C 5.5 C 4.0 km/h (1 Bft)
02.11.2009 21:00 5.4 C 95 % 1006.6 hPa 0.0 l/m 2.0 km/h (1 Bft) S-SO 0.00 h 0 W/m 4.7 C 5.4 C 4.8 km/h (1 Bft)
02.11.2009 22:00 5.4 C 95 % 1006.3 hPa 0.2 l/m 1.2 km/h (1 Bft) W-SW 0.00 h 0 W/m 4.7 C 5.4 C 3.6 km/h (1 Bft)
02.11.2009 23:00 5.4 C 96 % 1005.6 hPa 0.0 l/m 1.9 km/h (1 Bft) S-SW 0.00 h 0 W/m 4.8 C 5.3 C 4.9 km/h (1 Bft)
03.11.2009 00:00 5.4 C 95 % 1004.6 hPa 0.0 l/m 3.2 km/h (1 Bft) S 0.00 h 0 W/m 4.6 C 5.1 C 6.8 km/h (2 Bft)
03.11.2009 01:00 5.3 C 95 % 1003.8 hPa 0.4 l/m 2.6 km/h (1 Bft) S 0.00 h 0 W/m 4.6 C 5.1 C 6.2 km/h (2 Bft)
03.11.2009 02:00 5.3 C 95 % 1003.4 hPa 0.0 l/m 0.8 km/h (0 Bft) S 0.00 h 0 W/m 4.6 C 5.3 C 2.8 km/h (1 Bft)
03.11.2009 03:00 5.2 C 95 % 1003.0 hPa 0.0 l/m 1.4 km/h (1 Bft) S-SO 0.00 h 0 W/m 4.5 C 5.1 C 3.6 km/h (1 Bft)
03.11.2009 04:00 5.2 C 95 % 1003.0 hPa 0.2 l/m 1.0 km/h (0 Bft) S-SO 0.00 h 0 W/m 4.5 C 5.2 C 2.5 km/h (1 Bft)
03.11.2009 05:00 5.2 C 96 % 1003.1 hPa 0.4 l/m 0.8 km/h (0 Bft) S-SO 0.00 h 0 W/m 4.6 C 5.2 C 2.4 km/h (1 Bft)
03.11.2009 06:00 5.3 C 96 % 1003.1 hPa 0.4 l/m 0.9 km/h (0 Bft) S-SO 0.00 h 0 W/m 4.7 C 5.2 C 1.8 km/h (1 Bft)
03.11.2009 07:00 4.7 C 96 % 1003.4 hPa 0.0 l/m 0.5 km/h (0 Bft) S-SO 0.00 h 19 W/m 4.1 C 4.7 C 1.1 km/h (1 Bft)
03.11.2009 08:00 5.0 C 97 % 1003.6 hPa 0.0 l/m 1.3 km/h (1 Bft) SO 0.25 h 75 W/m 4.6 C 5.0 C 2.9 km/h (1 Bft)
03.11.2009 09:00 6.2 C 97 % 1003.4 hPa 0.0 l/m 1.2 km/h (1 Bft) SO 0.73 h 194 W/m 5.8 C 6.2 C 3.0 km/h (1 Bft)
03.11.2009 10:00 7.8 C 94 % 1003.3 hPa 0.0 l/m 0.7 km/h (0 Bft) N-NW 0.20 h 161 W/m 6.9 C 7.8 C 1.8 km/h (1 Bft)
03.11.2009 11:00 8.5 C 88 % 1002.9 hPa 0.0 l/m 1.2 km/h (1 Bft) S-SO 0.52 h 222 W/m 6.5 C 8.5 C 2.6 km/h (1 Bft)
03.11.2009 12:00 10.0 C 76 % 1002.1 hPa 0.0 l/m 4.1 km/h (1 Bft) W-SW 0.50 h 290 W/m 6.0 C 9.8 C 8.1 km/h (2 Bft)
03.11.2009 13:00 9.9 C 73 % 1001.2 hPa 0.0 l/m 5.7 km/h (1 Bft) W-SW 0.15 h 193 W/m 5.3 C 9.5 C 10.2 km/h (2 Bft)
03.11.2009 14:00 9.7 C 73 % 1000.7 hPa 0.0 l/m 3.3 km/h (1 Bft) W-SW 0.00 h 112 W/m 5.2 C 9.6 C 6.3 km/h (2 Bft)
03.11.2009 15:00 10.1 C 73 % 1000.2 hPa 0.0 l/m 3.4 km/h (1 Bft) S-SW 0.32 h 112 W/m 5.6 C 10.1 C 7.4 km/h (2 Bft)
03.11.2009 16:00 9.5 C 75 % 999.8 hPa 0.2 l/m 4.7 km/h (1 Bft) S 0.00 h 21 W/m 5.3 C 9.2 C 9.4 km/h (2 Bft)
03.11.2009 17:00 8.6 C 84 % 999.7 hPa 0.2 l/m 4.8 km/h (1 Bft) S 0.00 h 0 W/m 6.1 C 8.2 C 9.8 km/h (2 Bft)
03.11.2009 18:00 8.2 C 89 % 999.4 hPa 0.4 l/m 5.9 km/h (2 Bft) S-SO 0.00 h 0 W/m 6.5 C 7.4 C 11.2 km/h (2 Bft)
03.11.2009 19:00 8.2 C 92 % 999.0 hPa 0.8 l/m 5.3 km/h (1 Bft) S-SO 0.00 h 0 W/m 7.0 C 7.6 C 10.7 km/h (2 Bft)
03.11.2009 20:00 8.2 C 94 % 998.4 hPa 0.4 l/m 4.2 km/h (1 Bft) S-SO 0.00 h 0 W/m 7.3 C 7.9 C 9.5 km/h (2 Bft)
03.11.2009 21:00 8.5 C 96 % 997.6 hPa 0.2 l/m 4.4 km/h (1 Bft) SW 0.00 h 0 W/m 7.9 C 8.2 C 8.5 km/h (2 Bft)
03.11.2009 22:00 8.8 C 97 % 996.7 hPa 0.2 l/m 3.3 km/h (1 Bft) SW 0.00 h 0 W/m 8.4 C 8.7 C 6.9 km/h (2 Bft)
03.11.2009 23:00 9.2 C 96 % 995.7 hPa 0.6 l/m 7.3 km/h (2 Bft) S-SW 0.00 h 0 W/m 8.6 C 8.3 C 13.9 km/h (3 Bft)
04.11.2009 00:00 9.5 C 95 % 994.9 hPa 1.8 l/m 4.9 km/h (1 Bft) S 0.00 h 0 W/m 8.6 C 9.0 C 9.5 km/h (2 Bft)
04.11.2009 01:00 9.5 C 95 % 993.6 hPa 0.4 l/m 6.0 km/h (2 Bft) S-SO 0.00 h 0 W/m 8.7 C 8.9 C 11.5 km/h (2 Bft)
04.11.2009 02:00 9.6 C 95 % 991.9 hPa 0.0 l/m 6.3 km/h (2 Bft) S-SO 0.00 h 0 W/m 8.8 C 8.9 C 11.9 km/h (2 Bft)
04.11.2009 03:00 9.7 C 94 % 990.5 hPa 0.8 l/m 3.9 km/h (1 Bft) S-SO 0.00 h 0 W/m 8.8 C 9.4 C 7.9 km/h (2 Bft)
04.11.2009 04:00 10.2 C 94 % 989.5 hPa 0.8 l/m 12.0 km/h (2 Bft) SW 0.00 h 0 W/m 9.2 C 9.8 C 21.5 km/h (4 Bft)
04.11.2009 05:00 10.4 C 95 % 989.7 hPa 1.2 l/m 9.2 km/h (2 Bft) W 0.00 h 0 W/m 9.6 C 10.4 C 15.1 km/h (3 Bft)
04.11.2009 06:00 10.1 C 94 % 990.7 hPa 0.2 l/m 17.2 km/h (3 Bft) W 0.00 h 0 W/m 9.1 C 9.3 C 26.5 km/h (4 Bft)
04.11.2009 07:00 9.7 C 86 % 992.5 hPa 0.0 l/m 19.7 km/h (3 Bft) W 0.02 h 30 W/m 7.6 C 7.1 C 29.8 km/h (5 Bft)
04.11.2009 08:00 9.6 C 82 % 993.9 hPa 0.6 l/m 11.4 km/h (2 Bft) W 0.00 h 22 W/m 6.6 C 8.0 C 18.7 km/h (3 Bft)
04.11.2009 09:00 8.7 C 86 % 994.5 hPa 0.0 l/m 10.2 km/h (2 Bft) W 0.00 h 78 W/m 6.6 C 7.3 C 16.0 km/h (3 Bft)
04.11.2009 10:00 8.9 C 79 % 995.2 hPa 0.2 l/m 13.3 km/h (3 Bft) W 0.15 h 143 W/m 5.5 C 7.0 C 20.9 km/h (4 Bft)
04.11.2009 11:00 9.9 C 74 % 995.3 hPa 0.0 l/m 12.8 km/h (3 Bft) W 0.47 h 266 W/m 5.4 C 8.9 C 20.6 km/h (4 Bft)
04.11.2009 12:00 9.9 C 74 % 996.0 hPa 0.0 l/m 14.9 km/h (3 Bft) W 0.58 h 292 W/m 5.3 C 8.5 C 23.2 km/h (4 Bft)
04.11.2009 13:00 10.2 C 66 % 995.7 hPa 0.0 l/m 19.3 km/h (3 Bft) W 0.72 h 324 W/m 4.1 C 9.5 C 28.4 km/h (4 Bft)
04.11.2009 14:00 11.2 C 59 % 995.3 hPa 0.0 l/m 15.4 km/h (3 Bft) W 0.20 h 132 W/m 3.3 C 11.2 C 23.7 km/h (4 Bft)
04.11.2009 15:00 10.3 C 62 % 995.3 hPa 0.0 l/m 11.0 km/h (2 Bft) W 0.33 h 89 W/m 3.3 C 10.3 C 17.0 km/h (3 Bft)
04.11.2009 16:00 10.0 C 61 % 995.6 hPa 0.0 l/m 7.2 km/h (2 Bft) W-NW 0.05 h 25 W/m 2.9 C 9.6 C 11.0 km/h (2 Bft)
04.11.2009 17:00 9.2 C 60 % 996.0 hPa 0.0 l/m 5.9 km/h (2 Bft) W 0.00 h 5 W/m 1.8 C 8.5 C 9.4 km/h (2 Bft)
04.11.2009 18:00 8.0 C 65 % 996.5 hPa 0.0 l/m 1.5 km/h (1 Bft) S-SO 0.00 h 0 W/m 1.9 C 8.0 C 3.3 km/h (1 Bft)
04.11.2009 19:00 6.9 C 73 % 997.0 hPa 0.0 l/m 1.4 km/h (1 Bft) S-SO 0.00 h 0 W/m 2.4 C 6.9 C 2.5 km/h (1 Bft)
04.11.2009 20:00 6.9 C 77 % 997.6 hPa 0.6 l/m 5.8 km/h (2 Bft) S-SO 0.00 h 0 W/m 3.2 C 6.1 C 10.3 km/h (2 Bft)
04.11.2009 21:00 6.6 C 85 % 998.1 hPa 0.2 l/m 2.4 km/h (1 Bft) W 0.00 h 0 W/m 4.3 C 6.3 C 5.1 km/h (1 Bft)
04.11.2009 22:00 6.4 C 89 % 998.3 hPa 0.4 l/m 1.0 km/h (0 Bft) W 0.00 h 0 W/m 4.7 C 6.3 C 2.3 km/h (1 Bft)
04.11.2009 23:00 6.2 C 92 % 998.2 hPa 0.2 l/m 2.2 km/h (1 Bft) SO 0.00 h 0 W/m 5.0 C 6.0 C 4.0 km/h (1 Bft)
05.11.2009 00:00 6.2 C 93 % 998.6 hPa 0.2 l/m 3.2 km/h (1 Bft) SW 0.00 h 0 W/m 5.2 C 6.0 C 6.2 km/h (2 Bft)
05.11.2009 01:00 6.1 C 94 % 998.7 hPa 0.2 l/m 3.9 km/h (1 Bft) SW 0.00 h 0 W/m 5.2 C 5.7 C 8.2 km/h (2 Bft)
05.11.2009 02:00 6.0 C 94 % 998.8 hPa 0.0 l/m 3.3 km/h (1 Bft) S 0.00 h 0 W/m 5.1 C 5.8 C 6.8 km/h (2 Bft)
05.11.2009 03:00 5.9 C 94 % 998.9 hPa 0.0 l/m 2.9 km/h (1 Bft) S 0.00 h 0 W/m 5.0 C 5.8 C 5.6 km/h (1 Bft)
05.11.2009 04:00 5.8 C 95 % 999.2 hPa 0.0 l/m 3.0 km/h (1 Bft) S-SW 0.00 h 0 W/m 5.0 C 5.6 C 6.6 km/h (2 Bft)
05.11.2009 05:00 5.6 C 95 % 999.4 hPa 0.0 l/m 2.3 km/h (1 Bft) S-SO 0.00 h 0 W/m 4.9 C 5.5 C 4.8 km/h (1 Bft)
05.11.2009 06:00 5.5 C 94 % 999.6 hPa 0.0 l/m 0.8 km/h (0 Bft) S-SO 0.00 h 0 W/m 4.7 C 5.5 C 1.7 km/h (1 Bft)
05.11.2009 07:00 4.9 C 94 % 1000.5 hPa 0.0 l/m 0.6 km/h (0 Bft) NW 0.00 h 15 W/m 4.0 C 4.9 C 1.2 km/h (1 Bft)
05.11.2009 08:00 4.9 C 95 % 1001.0 hPa 0.0 l/m 0.9 km/h (0 Bft) O 0.38 h 89 W/m 4.2 C 4.9 C 1.8 km/h (1 Bft)
05.11.2009 09:00 7.8 C 89 % 1001.2 hPa 0.0 l/m 0.6 km/h (0 Bft) N 0.95 h 268 W/m 6.1 C 7.8 C 1.7 km/h (1 Bft)
05.11.2009 10:00 9.7 C 76 % 1001.0 hPa 0.2 l/m 2.9 km/h (1 Bft) S-SO 0.60 h 278 W/m 5.6 C 9.7 C 5.9 km/h (2 Bft)
05.11.2009 11:00 10.9 C 69 % 1001.0 hPa 0.0 l/m 5.2 km/h (1 Bft) S-SO 0.68 h 324 W/m 5.5 C 10.9 C 9.4 km/h (2 Bft)
05.11.2009 12:00 11.2 C 66 % 1000.9 hPa 0.0 l/m 3.1 km/h (1 Bft) NW 0.23 h 232 W/m 5.1 C 11.2 C 5.9 km/h (2 Bft)
05.11.2009 13:00 11.7 C 62 % 1000.4 hPa 0.2 l/m 5.8 km/h (2 Bft) SW 0.37 h 221 W/m 4.7 C 11.7 C 10.6 km/h (2 Bft)
05.11.2009 14:00 10.4 C 74 % 1000.6 hPa 0.2 l/m 1.9 km/h (1 Bft) N-NW 0.15 h 150 W/m 6.0 C 10.4 C 3.2 km/h (1 Bft)
05.11.2009 15:00 10.6 C 76 % 1000.9 hPa 0.0 l/m 3.8 km/h (1 Bft) NW 0.38 h 115 W/m 6.5 C 10.6 C 6.3 km/h (2 Bft)
05.11.2009 16:00 9.9 C 72 % 1001.3 hPa 0.0 l/m 2.6 km/h (1 Bft) W-NW 0.17 h 32 W/m 5.1 C 9.9 C 4.0 km/h (1 Bft)
05.11.2009 17:00 7.9 C 78 % 1002.3 hPa 0.0 l/m 1.6 km/h (1 Bft) O-SO 0.00 h 5 W/m 4.2 C 7.8 C 2.9 km/h (1 Bft)
05.11.2009 18:00 6.3 C 83 % 1003.4 hPa 0.0 l/m 1.4 km/h (1 Bft) O-SO 0.00 h 0 W/m 3.7 C 6.2 C 2.5 km/h (1 Bft)
05.11.2009 19:00 5.0 C 88 % 1004.3 hPa 0.0 l/m 1.6 km/h (1 Bft) O-SO 0.00 h 0 W/m 3.1 C 4.8 C 2.6 km/h (1 Bft)
05.11.2009 20:00 4.3 C 90 % 1004.6 hPa 0.0 l/m 0.8 km/h (0 Bft) O-SO 0.00 h 0 W/m 2.8 C 4.3 C 1.6 km/h (1 Bft)
05.11.2009 21:00 3.8 C 92 % 1005.0 hPa 0.0 l/m 0.3 km/h (0 Bft) O-SO 0.00 h 0 W/m 2.7 C 3.8 C 0.6 km/h (0 Bft)
05.11.2009 22:00 4.0 C 94 % 1005.6 hPa 0.0 l/m 1.2 km/h (1 Bft) O-SO 0.00 h 0 W/m 3.1 C 3.9 C 2.1 km/h (1 Bft)
05.11.2009 23:00 4.3 C 95 % 1005.8 hPa 0.2 l/m 0.3 km/h (0 Bft) W-NW 0.00 h 0 W/m 3.6 C 4.3 C 1.2 km/h (1 Bft)
06.11.2009 00:00 4.4 C 96 % 1006.0 hPa 0.0 l/m 0.6 km/h (0 Bft) W-NW 0.00 h 0 W/m 3.8 C 4.4 C 1.5 km/h (1 Bft)
06.11.2009 01:00 3.6 C 96 % 1006.4 hPa 0.2 l/m 0.2 km/h (0 Bft) W-NW 0.00 h 0 W/m 3.0 C 3.6 C 0.6 km/h (0 Bft)
06.11.2009 02:00 3.3 C 97 % 1006.7 hPa 0.0 l/m 0.0 km/h (0 Bft) W-NW 0.00 h 0 W/m 2.8 C 3.3 C 0.4 km/h (0 Bft)
06.11.2009 03:00 3.1 C 97 % 1006.8 hPa 0.0 l/m 0.4 km/h (0 Bft) W-NW 0.00 h 0 W/m 2.6 C 3.1 C 1.2 km/h (1 Bft)
06.11.2009 04:00 2.8 C 98 % 1007.4 hPa 0.0 l/m 0.0 km/h (0 Bft) N 0.00 h 0 W/m 2.5 C 2.8 C 0.2 km/h (0 Bft)
06.11.2009 05:00 2.7 C 98 % 1007.9 hPa 0.0 l/m 0.0 km/h (0 Bft) N 0.00 h 0 W/m 2.4 C 2.7 C 0.0 km/h (0 Bft)
06.11.2009 06:00 2.9 C 98 % 1008.5 hPa 0.0 l/m 0.1 km/h (0 Bft) W-NW 0.00 h 0 W/m 2.6 C 2.9 C 0.5 km/h (0 Bft)
06.11.2009 07:00 3.1 C 99 % 1009.0 hPa 0.0 l/m 0.5 km/h (0 Bft) W-NW 0.02 h 14 W/m 2.9 C 3.1 C 1.5 km/h (1 Bft)
06.11.2009 08:00 3.4 C 99 % 1009.9 hPa 0.0 l/m 0.1 km/h (0 Bft) W-NW 0.05 h 54 W/m 3.2 C 3.4 C 0.6 km/h (0 Bft)
06.11.2009 09:00 4.1 C 99 % 1010.1 hPa 0.0 l/m 1.7 km/h (1 Bft) O-SO 0.47 h 157 W/m 4.0 C 3.8 C 2.9 km/h (1 Bft)
06.11.2009 10:00 6.2 C 99 % 1010.0 hPa 0.0 l/m 2.3 km/h (1 Bft) NW 0.72 h 262 W/m 6.0 C 6.1 C 4.5 km/h (1 Bft)
06.11.2009 11:00 8.3 C 89 % 1009.9 hPa 0.0 l/m 0.6 km/h (0 Bft) N-NW 0.67 h 291 W/m 6.6 C 8.3 C 2.0 km/h (1 Bft)
06.11.2009 12:00 9.3 C 77 % 1009.8 hPa 0.0 l/m 1.3 km/h (1 Bft) W-SW 0.02 h 134 W/m 5.5 C 9.3 C 3.2 km/h (1 Bft)
06.11.2009 13:00 10.0 C 71 % 1009.5 hPa 0.0 l/m 1.8 km/h (1 Bft) W 0.00 h 143 W/m 5.0 C 9.9 C 3.5 km/h (1 Bft)
06.11.2009 14:00 10.8 C 66 % 1009.3 hPa 0.0 l/m 4.6 km/h (1 Bft) W-NW 0.30 h 148 W/m 4.8 C 10.8 C 7.3 km/h (2 Bft)
06.11.2009 15:00 11.2 C 64 % 1009.5 hPa 0.0 l/m 5.4 km/h (1 Bft) W 0.72 h 120 W/m 4.6 C 11.2 C 8.4 km/h (2 Bft)
06.11.2009 16:00 10.6 C 66 % 1009.9 hPa 0.0 l/m 2.9 km/h (1 Bft) W 0.33 h 36 W/m 4.5 C 10.6 C 4.8 km/h (1 Bft)
06.11.2009 17:00 8.1 C 75 % 1010.2 hPa 0.0 l/m 1.8 km/h (1 Bft) S-SO 0.00 h 5 W/m 3.9 C 8.1 C 3.1 km/h (1 Bft)
06.11.2009 18:00 5.9 C 82 % 1011.0 hPa 0.0 l/m 2.9 km/h (1 Bft) O-SO 0.00 h 0 W/m 3.2 C 5.8 C 4.4 km/h (1 Bft)
06.11.2009 19:00 4.5 C 87 % 1011.4 hPa 0.0 l/m 3.0 km/h (1 Bft) O-SO 0.00 h 0 W/m 2.6 C 4.1 C 4.5 km/h (1 Bft)
06.11.2009 20:00 3.5 C 90 % 1011.1 hPa 0.0 l/m 0.5 km/h (0 Bft) O-SO 0.00 h 0 W/m 1.9 C 3.5 C 1.8 km/h (1 Bft)
06.11.2009 21:00 2.6 C 92 % 1010.9 hPa 0.0 l/m 1.1 km/h (1 Bft) O-SO 0.00 h 0 W/m 1.4 C 2.6 C 2.0 km/h (1 Bft)
06.11.2009 22:00 1.9 C 93 % 1010.4 hPa 0.0 l/m 0.3 km/h (0 Bft) O-SO 0.00 h 0 W/m 0.9 C 1.9 C 0.8 km/h (0 Bft)
06.11.2009 23:00 1.3 C 94 % 1010.0 hPa 0.0 l/m 1.8 km/h (1 Bft) O-SO 0.00 h 0 W/m 0.5 C 1.0 C 2.9 km/h (1 Bft)
07.11.2009 00:00 1.1 C 95 % 1009.6 hPa 0.0 l/m 1.2 km/h (1 Bft) O-SO 0.00 h 0 W/m 0.5 C 1.0 C 2.0 km/h (1 Bft)
07.11.2009 01:00 1.5 C 97 % 1008.6 hPa 0.0 l/m 0.4 km/h (0 Bft) O-SO 0.00 h 0 W/m 1.0 C 1.5 C 0.9 km/h (0 Bft)
07.11.2009 02:00 2.1 C 98 % 1007.8 hPa 0.0 l/m 0.3 km/h (0 Bft) O-SO 0.00 h 0 W/m 1.7 C 2.1 C 1.1 km/h (1 Bft)
07.11.2009 03:00 2.1 C 98 % 1007.2 hPa 0.0 l/m 3.0 km/h (1 Bft) O-SO 0.00 h 0 W/m 1.8 C 1.6 C 4.5 km/h (1 Bft)
07.11.2009 04:00 1.9 C 98 % 1006.4 hPa 0.0 l/m 1.8 km/h (1 Bft) O-SO 0.00 h 0 W/m 1.7 C 1.8 C 3.2 km/h (1 Bft)
07.11.2009 05:00 2.0 C 99 % 1005.8 hPa 0.0 l/m 0.8 km/h (0 Bft) O-SO 0.00 h 0 W/m 1.8 C 2.0 C 2.1 km/h (1 Bft)
07.11.2009 06:00 1.9 C 99 % 1004.9 hPa 0.0 l/m 1.6 km/h (1 Bft) O-SO 0.00 h 0 W/m 1.8 C 1.9 C 3.2 km/h (1 Bft)
07.11.2009 07:00 2.1 C 99 % 1004.6 hPa 0.0 l/m 1.1 km/h (1 Bft) O-SO 0.00 h 13 W/m 1.9 C 2.0 C 2.1 km/h (1 Bft)
07.11.2009 08:00 2.2 C 100 % 1004.8 hPa 0.0 l/m 0.5 km/h (0 Bft) O-SO 0.10 h 46 W/m 2.2 C 2.2 C 1.2 km/h (1 Bft)
07.11.2009 09:00 2.9 C 100 % 1004.8 hPa 0.2 l/m 1.2 km/h (1 Bft) O-SO 0.17 h 80 W/m 2.9 C 2.8 C 2.8 km/h (1 Bft)
07.11.2009 10:00 3.4 C 100 % 1004.3 hPa 0.0 l/m 1.4 km/h (1 Bft) SO 0.03 h 104 W/m 3.4 C 3.2 C 2.7 km/h (1 Bft)
07.11.2009 11:00 4.5 C 100 % 1003.8 hPa 0.0 l/m 1.0 km/h (0 Bft) W-NW 0.00 h 134 W/m 4.5 C 4.5 C 2.7 km/h (1 Bft)
07.11.2009 12:00 5.0 C 100 % 1003.2 hPa 0.0 l/m 0.7 km/h (0 Bft) S-SO 0.00 h 77 W/m 5.0 C 5.0 C 2.3 km/h (1 Bft)
07.11.2009 13:00 5.8 C 100 % 1002.4 hPa 0.0 l/m 0.6 km/h (0 Bft) W-NW 0.00 h 116 W/m 5.8 C 5.8 C 1.8 km/h (1 Bft)
07.11.2009 14:00 6.7 C 98 % 1001.9 hPa 0.0 l/m 0.5 km/h (0 Bft) W-NW 0.17 h 121 W/m 6.4 C 6.7 C 1.9 km/h (1 Bft)
07.11.2009 15:00 7.5 C 94 % 1001.5 hPa 0.2 l/m 0.2 km/h (0 Bft) W-NW 0.10 h 68 W/m 6.6 C 7.5 C 1.0 km/h (0 Bft)
07.11.2009 16:00 7.5 C 87 % 1001.5 hPa 0.0 l/m 1.4 km/h (1 Bft) O-SO 0.00 h 13 W/m 5.4 C 7.5 C 3.3 km/h (1 Bft)
07.11.2009 17:00 7.3 C 86 % 1001.5 hPa 0.2 l/m 0.8 km/h (0 Bft) W 0.00 h 0 W/m 5.2 C 7.3 C 1.9 km/h (1 Bft)
07.11.2009 18:00 6.7 C 90 % 1001.7 hPa 0.2 l/m 0.1 km/h (0 Bft) SO 0.00 h 0 W/m 5.1 C 6.7 C 0.6 km/h (0 Bft)
07.11.2009 19:00 6.3 C 91 % 1002.1 hPa 0.2 l/m 0.1 km/h (0 Bft) SW 0.00 h 0 W/m 5.0 C 6.3 C 0.9 km/h (0 Bft)
07.11.2009 20:00 6.1 C 93 % 1002.8 hPa 0.0 l/m 4.9 km/h (1 Bft) W 0.00 h 0 W/m 5.0 C 5.3 C 7.5 km/h (2 Bft)
07.11.2009 21:00 5.7 C 94 % 1003.2 hPa 0.0 l/m 4.5 km/h (1 Bft) W 0.00 h 0 W/m 4.8 C 5.1 C 6.9 km/h (2 Bft)
07.11.2009 22:00 5.7 C 94 % 1003.7 hPa 0.2 l/m 6.3 km/h (2 Bft) W-NW 0.00 h 0 W/m 4.8 C 4.6 C 10.0 km/h (2 Bft)
07.11.2009 23:00 5.3 C 93 % 1004.2 hPa 0.0 l/m 5.5 km/h (1 Bft) W 0.00 h 0 W/m 4.3 C 4.3 C 9.4 km/h (2 Bft)
08.11.2009 00:00 5.2 C 92 % 1004.5 hPa 0.0 l/m 2.2 km/h (1 Bft) S 0.00 h 0 W/m 4.0 C 5.1 C 4.4 km/h (1 Bft)
08.11.2009 01:00 5.1 C 92 % 1004.7 hPa 0.0 l/m 0.7 km/h (0 Bft) S 0.00 h 0 W/m 3.9 C 5.1 C 2.2 km/h (1 Bft)
08.11.2009 02:00 5.2 C 92 % 1004.7 hPa 0.2 l/m 0.3 km/h (0 Bft) S-SW 0.00 h 0 W/m 4.1 C 5.2 C 1.3 km/h (1 Bft)
08.11.2009 03:00 5.3 C 93 % 1004.5 hPa 0.0 l/m 0.8 km/h (0 Bft) S-SO 0.00 h 0 W/m 4.2 C 5.3 C 2.6 km/h (1 Bft)
08.11.2009 04:00 4.8 C 93 % 1004.2 hPa 0.0 l/m 0.5 km/h (0 Bft) SO 0.00 h 0 W/m 3.8 C 4.8 C 1.6 km/h (1 Bft)
08.11.2009 05:00 4.4 C 94 % 1004.0 hPa 0.0 l/m 2.7 km/h (1 Bft) O-SO 0.00 h 0 W/m 3.5 C 4.2 C 4.6 km/h (1 Bft)
08.11.2009 06:00 4.1 C 95 % 1003.6 hPa 0.0 l/m 1.6 km/h (1 Bft) O-SO 0.00 h 0 W/m 3.3 C 4.0 C 2.7 km/h (1 Bft)
08.11.2009 07:00 3.6 C 95 % 1003.6 hPa 0.0 l/m 0.6 km/h (0 Bft) O-SO 0.00 h 9 W/m 3.0 C 3.5 C 1.1 km/h (1 Bft)
08.11.2009 08:00 3.9 C 97 % 1003.7 hPa 0.0 l/m 0.6 km/h (0 Bft) O-SO 0.00 h 41 W/m 3.5 C 3.9 C 1.2 km/h (1 Bft)
08.11.2009 09:00 4.8 C 97 % 1003.5 hPa 0.0 l/m 0.0 km/h (0 Bft) O-SO 0.00 h 96 W/m 4.4 C 4.8 C 0.5 km/h (0 Bft)
08.11.2009 10:00 5.6 C 97 % 1003.0 hPa 0.0 l/m 0.9 km/h (0 Bft) NO 0.00 h 132 W/m 5.1 C 5.6 C 2.7 km/h (1 Bft)
08.11.2009 11:00 6.4 C 93 % 1002.7 hPa 0.0 l/m 0.4 km/h (0 Bft) N-NO 0.00 h 126 W/m 5.4 C 6.3 C 1.4 km/h (1 Bft)
08.11.2009 12:00 7.0 C 87 % 1002.0 hPa 0.0 l/m 2.8 km/h (1 Bft) O-SO 0.00 h 169 W/m 5.0 C 6.7 C 5.3 km/h (1 Bft)
08.11.2009 13:00 7.5 C 82 % 1001.5 hPa 0.0 l/m 1.2 km/h (1 Bft) O-SO 0.00 h 129 W/m 4.7 C 7.5 C 3.0 km/h (1 Bft)
08.11.2009 14:00 7.3 C 80 % 1001.5 hPa 0.0 l/m 0.8 km/h (0 Bft) O-SO 0.00 h 27 W/m 4.2 C 7.3 C 1.7 km/h (1 Bft)
08.11.2009 15:00 7.1 C 80 % 1001.4 hPa 0.0 l/m 1.2 km/h (1 Bft) O 0.00 h 14 W/m 4.0 C 7.1 C 2.9 km/h (1 Bft)
08.11.2009 16:00 7.1 C 81 % 1001.6 hPa 0.0 l/m 1.0 km/h (0 Bft) NO 0.00 h 10 W/m 4.0 C 7.0 C 2.8 km/h (1 Bft)
08.11.2009 17:00 6.7 C 85 % 1001.9 hPa 0.2 l/m 1.4 km/h (1 Bft) N 0.00 h 0 W/m 4.3 C 6.6 C 4.1 km/h (1 Bft)
08.11.2009 18:00 6.3 C 88 % 1002.4 hPa 0.6 l/m 0.5 km/h (0 Bft) N 0.00 h 0 W/m 4.4 C 6.3 C 1.4 km/h (1 Bft)
08.11.2009 19:00 6.0 C 90 % 1002.5 hPa 0.4 l/m 0.3 km/h (0 Bft) O-SO 0.00 h 0 W/m 4.5 C 6.0 C 1.0 km/h (0 Bft)
08.11.2009 20:00 5.6 C 92 % 1002.8 hPa 0.6 l/m 6.4 km/h (2 Bft) O-SO 0.00 h 0 W/m 4.4 C 4.5 C 10.6 km/h (2 Bft)
08.11.2009 21:00 4.8 C 92 % 1003.5 hPa 0.0 l/m 2.2 km/h (1 Bft) O-SO 0.00 h 0 W/m 3.6 C 4.6 C 5.0 km/h (1 Bft)
08.11.2009 22:00 4.6 C 92 % 1003.6 hPa 0.0 l/m 0.4 km/h (0 Bft) O-NO 0.00 h 0 W/m 3.4 C 4.6 C 1.6 km/h (1 Bft)
08.11.2009 23:00 4.6 C 92 % 1003.7 hPa 0.0 l/m 0.0 km/h (0 Bft) N 0.00 h 0 W/m 3.4 C 4.6 C 0.1 km/h (0 Bft)
Min-Datum _ 07.11.09 04.11.09 04.11.09 - 02.11.09 - - - 07.11.09 06.11.09 02.11.09
_ Min-Zeit 00:24 14:36 04:45 - 00:00 - - - 00:24 23:40 00:00
Minimum _ 1.0 C 53 % 989.2 hPa - 0.0 km/h (0 Bft) - - - 0.3 C -0.9 C 0.0 km/h (0 Bft)
Max-Datum _ 05.11.09 02.11.09 06.11.09 02.11.09 04.11.09 - 03.11.09 03.11.09 02.11.09 05.11.09 02.11.09
_ Max-Zeit 13:32 08:00 18:45 04:42 06:09 - 08:02 12:03 08:44 13:32 14:36
Maximum _ 12.3 C 100 % 1011.4 hPa 2.4 l/m 34.8 km/h
W (5 Bft)
- 0.02 h 654 W/m 11.1 C 12.3 C 50.4 km/h
W (7 Bft)
Durchschnitt _ 6.7 C 90 % 1002.8 hPa #35.4 l/m 3.3 km/h (1 Bft) W #12:57 h 106 W/m 5.0 C 6.4 C 5.9 km/h (2 Bft)
© Kaiko 2009